sensor_id;sensor_type;location;lat;lon;timestamp;pressure;altitude;pressure_sealevel;temperature;humidity
61018;BME280;48171;51.550;5.434;2023-05-24T00:00:19;102490.91;;;8.63;89.61
61018;BME280;48171;51.550;5.434;2023-05-24T00:02:46;102480.38;;;8.63;90.72
61018;BME280;48171;51.550;5.434;2023-05-24T00:05:12;102489.09;;;8.62;90.21
61018;BME280;48171;51.550;5.434;2023-05-24T00:07:39;102484.72;;;8.61;89.45
61018;BME280;48171;51.550;5.434;2023-05-24T00:10:05;102479.38;;;8.59;90.56
61018;BME280;48171;51.550;5.434;2023-05-24T00:12:31;102474.88;;;8.55;89.34
61018;BME280;48171;51.550;5.434;2023-05-24T00:14:56;102474.75;;;8.51;89.76
61018;BME280;48171;51.550;5.434;2023-05-24T00:17:22;102475.44;;;8.44;89.64
61018;BME280;48171;51.550;5.434;2023-05-24T00:19:48;102466.44;;;8.37;90.27
61018;BME280;48171;51.550;5.434;2023-05-24T00:22:14;102457.31;;;8.24;91.03
61018;BME280;48171;51.550;5.434;2023-05-24T00:24:39;102472.41;;;8.31;91.08
61018;BME280;48171;51.550;5.434;2023-05-24T00:27:05;102461.84;;;8.30;91.94
61018;BME280;48171;51.550;5.434;2023-05-24T00:29:31;102463.59;;;8.29;91.90
61018;BME280;48171;51.550;5.434;2023-05-24T00:31:56;102460.88;;;8.26;92.46
61018;BME280;48171;51.550;5.434;2023-05-24T00:34:22;102459.94;;;8.24;91.59
61018;BME280;48171;51.550;5.434;2023-05-24T00:36:47;102462.47;;;8.21;91.48
61018;BME280;48171;51.550;5.434;2023-05-24T00:39:12;102458.03;;;8.20;92.32
61018;BME280;48171;51.550;5.434;2023-05-24T00:41:38;102453.63;;;8.19;92.15
61018;BME280;48171;51.550;5.434;2023-05-24T00:44:03;102450.94;;;8.17;92.08
61018;BME280;48171;51.550;5.434;2023-05-24T00:46:31;102451.66;;;8.12;92.01
61018;BME280;48171;51.550;5.434;2023-05-24T00:48:56;102463.00;;;8.09;93.47
61018;BME280;48171;51.550;5.434;2023-05-24T00:51:22;102452.34;;;8.05;93.53
61018;BME280;48171;51.550;5.434;2023-05-24T00:53:48;102453.16;;;8.02;93.69
61018;BME280;48171;51.550;5.434;2023-05-24T00:56:15;102451.34;;;8.01;94.01
61018;BME280;48171;51.550;5.434;2023-05-24T00:58:40;102447.72;;;7.96;93.58
61018;BME280;48171;51.550;5.434;2023-05-24T01:01:06;102445.91;;;7.95;93.82
61018;BME280;48171;51.550;5.434;2023-05-24T01:03:32;102451.13;;;7.93;93.88
61018;BME280;48171;51.550;5.434;2023-05-24T01:05:59;102449.31;;;7.91;94.19
61018;BME280;48171;51.550;5.434;2023-05-24T01:08:41;102436.16;;;7.91;94.10
61018;BME280;48171;51.550;5.434;2023-05-24T01:14:25;102442.91;;;7.82;94.87
61018;BME280;48171;51.550;5.434;2023-05-24T01:17:10;102432.22;;;7.76;95.34
61018;BME280;48171;51.550;5.434;2023-05-24T01:19:48;102434.78;;;7.75;95.15
61018;BME280;48171;51.550;5.434;2023-05-24T01:27:45;102431.91;;;7.66;95.90
61018;BME280;48171;51.550;5.434;2023-05-24T01:30:11;102431.78;;;7.63;95.69
61018;BME280;48171;51.550;5.434;2023-05-24T01:32:37;102432.59;;;7.60;95.62
61018;BME280;48171;51.550;5.434;2023-05-24T01:35:03;102443.13;;;7.60;95.59
61018;BME280;48171;51.550;5.434;2023-05-24T01:37:28;102436.03;;;7.57;95.51
61018;BME280;48171;51.550;5.434;2023-05-24T01:39:54;102439.50;;;7.56;95.28
61018;BME280;48171;51.550;5.434;2023-05-24T01:42:39;102435.09;;;7.55;95.23
61018;BME280;48171;51.550;5.434;2023-05-24T01:45:33;102432.41;;;7.54;95.54
61018;BME280;48171;51.550;5.434;2023-05-24T01:48:16;102428.66;;;7.46;94.62
61018;BME280;48171;51.550;5.434;2023-05-24T01:50:56;102424.97;;;7.40;96.12
61018;BME280;48171;51.550;5.434;2023-05-24T01:53:23;102414.25;;;7.34;96.41
61018;BME280;48171;51.550;5.434;2023-05-24T01:55:53;102418.31;;;7.25;97.05
61018;BME280;48171;51.550;5.434;2023-05-24T01:58:22;102419.94;;;7.21;97.19
61018;BME280;48171;51.550;5.434;2023-05-24T02:00:48;102421.69;;;7.20;97.32
61018;BME280;48171;51.550;5.434;2023-05-24T02:03:14;102430.44;;;7.19;97.41
61018;BME280;48171;51.550;5.434;2023-05-24T02:05:40;102421.50;;;7.14;96.96
61018;BME280;48171;51.550;5.434;2023-05-24T02:08:05;102437.22;;;7.13;96.78
61018;BME280;48171;51.550;5.434;2023-05-24T02:10:31;102430.88;;;7.06;97.09
61018;BME280;48171;51.550;5.434;2023-05-24T02:12:56;102435.13;;;7.03;97.33
61018;BME280;48171;51.550;5.434;2023-05-24T02:15:23;102442.06;;;7.00;96.91
61018;BME280;48171;51.550;5.434;2023-05-24T02:17:50;102438.47;;;6.97;96.58
61018;BME280;48171;51.550;5.434;2023-05-24T02:20:18;102440.16;;;6.95;97.00
61018;BME280;48171;51.550;5.434;2023-05-24T02:22:47;102435.63;;;6.91;97.57
61018;BME280;48171;51.550;5.434;2023-05-24T02:25:12;102445.34;;;6.93;97.90
61018;BME280;48171;51.550;5.434;2023-05-24T02:27:37;102439.16;;;6.91;97.96
61018;BME280;48171;51.550;5.434;2023-05-24T02:30:04;102437.41;;;6.92;98.00
61018;BME280;48171;51.550;5.434;2023-05-24T02:32:29;102450.34;;;6.86;97.25
61018;BME280;48171;51.550;5.434;2023-05-24T02:34:55;102444.19;;;6.85;97.64
61018;BME280;48171;51.550;5.434;2023-05-24T02:37:23;102436.19;;;6.82;98.25
61018;BME280;48171;51.550;5.434;2023-05-24T02:39:49;102437.88;;;6.80;98.30
61018;BME280;48171;51.550;5.434;2023-05-24T02:42:14;102431.69;;;6.78;98.36
61018;BME280;48171;51.550;5.434;2023-05-24T02:44:39;102424.31;;;6.68;97.28
61018;BME280;48171;51.550;5.434;2023-05-24T02:47:06;102441.09;;;6.71;98.13
61018;BME280;48171;51.550;5.434;2023-05-24T02:49:32;102444.50;;;6.69;97.84
61018;BME280;48171;51.550;5.434;2023-05-24T02:51:57;102450.59;;;6.68;97.95
61018;BME280;48171;51.550;5.434;2023-05-24T02:54:22;102447.81;;;6.63;97.26
61018;BME280;48171;51.550;5.434;2023-05-24T02:56:48;102449.50;;;6.61;97.21
61018;BME280;48171;51.550;5.434;2023-05-24T02:59:13;102445.97;;;6.60;98.22
61018;BME280;48171;51.550;5.434;2023-05-24T03:01:39;102444.16;;;6.59;98.48
61018;BME280;48171;51.550;5.434;2023-05-24T03:04:04;102440.53;;;6.56;99.12
61018;BME280;48171;51.550;5.434;2023-05-24T03:06:30;102442.13;;;6.51;98.88
61018;BME280;48171;51.550;5.434;2023-05-24T03:08:55;102442.94;;;6.50;99.03
61018;BME280;48171;51.550;5.434;2023-05-24T03:11:21;102440.31;;;6.50;99.64
61018;BME280;48171;51.550;5.434;2023-05-24T03:13:47;102441.13;;;6.47;98.96
61018;BME280;48171;51.550;5.434;2023-05-24T03:16:13;102425.88;;;6.37;98.83
61018;BME280;48171;51.550;5.434;2023-05-24T03:18:38;102448.03;;;6.45;99.26
61018;BME280;48171;51.550;5.434;2023-05-24T03:21:03;102433.91;;;6.41;99.67
61018;BME280;48171;51.550;5.434;2023-05-24T03:23:29;102429.50;;;6.40;99.48
61018;BME280;48171;51.550;5.434;2023-05-24T03:25:54;102435.44;;;6.35;99.58
61018;BME280;48171;51.550;5.434;2023-05-24T03:28:19;102429.28;;;6.34;100.00
61018;BME280;48171;51.550;5.434;2023-05-24T03:30:46;102424.66;;;6.27;99.97
61018;BME280;48171;51.550;5.434;2023-05-24T03:33:11;102427.28;;;6.27;100.00
61018;BME280;48171;51.550;5.434;2023-05-24T03:35:37;102429.81;;;6.24;100.00
61018;BME280;48171;51.550;5.434;2023-05-24T03:38:02;102429.75;;;6.23;100.00
61018;BME280;48171;51.550;5.434;2023-05-24T03:40:27;102433.25;;;6.23;100.00
61018;BME280;48171;51.550;5.434;2023-05-24T03:42:56;102428.00;;;6.23;100.00
61018;BME280;48171;51.550;5.434;2023-05-24T03:45:21;102423.69;;;6.25;100.00
61018;BME280;48171;51.550;5.434;2023-05-24T03:47:46;102434.25;;;6.27;100.00
61018;BME280;48171;51.550;5.434;2023-05-24T03:50:12;102429.22;;;6.33;100.00
61018;BME280;48171;51.550;5.434;2023-05-24T03:52:38;102433.59;;;6.32;100.00
61018;BME280;48171;51.550;5.434;2023-05-24T03:55:04;102429.16;;;6.31;100.00
61018;BME280;48171;51.550;5.434;2023-05-24T03:57:30;102425.59;;;6.29;99.80
61018;BME280;48171;51.550;5.434;2023-05-24T03:59:55;102427.44;;;6.32;100.00
61018;BME280;48171;51.550;5.434;2023-05-24T04:02:20;102424.94;;;6.35;100.00
61018;BME280;48171;51.550;5.434;2023-05-24T04:04:45;102425.00;;;6.36;100.00
61018;BME280;48171;51.550;5.434;2023-05-24T04:07:11;102417.94;;;6.35;100.00
61018;BME280;48171;51.550;5.434;2023-05-24T04:09:38;102419.69;;;6.35;100.00
61018;BME280;48171;51.550;5.434;2023-05-24T04:12:03;102419.75;;;6.36;100.00
61018;BME280;48171;51.550;5.434;2023-05-24T04:14:29;102421.72;;;6.44;100.00
61018;BME280;48171;51.550;5.434;2023-05-24T04:16:54;102429.75;;;6.48;100.00
61018;BME280;48171;51.550;5.434;2023-05-24T04:19:21;102442.13;;;6.51;100.00
61018;BME280;48171;51.550;5.434;2023-05-24T04:21:46;102433.53;;;6.55;100.00
61018;BME280;48171;51.550;5.434;2023-05-24T04:24:12;102431.94;;;6.60;100.00
61018;BME280;48171;51.550;5.434;2023-05-24T04:26:37;102431.16;;;6.63;100.00
61018;BME280;48171;51.550;5.434;2023-05-24T04:29:02;102432.06;;;6.63;100.00
61018;BME280;48171;51.550;5.434;2023-05-24T04:31:28;102438.34;;;6.68;100.00
61018;BME280;48171;51.550;5.434;2023-05-24T04:33:55;102428.78;;;6.70;100.00
61018;BME280;48171;51.550;5.434;2023-05-24T04:36:22;102427.06;;;6.71;100.00
61018;BME280;48171;51.550;5.434;2023-05-24T04:38:49;102428.97;;;6.75;100.00
61018;BME280;48171;51.550;5.434;2023-05-24T04:41:17;102438.72;;;6.79;100.00
61018;BME280;48171;51.550;5.434;2023-05-24T04:43:43;102436.25;;;6.84;100.00
61018;BME280;48171;51.550;5.434;2023-05-24T04:46:08;102434.66;;;6.89;100.00
61018;BME280;48171;51.550;5.434;2023-05-24T04:48:34;102440.03;;;6.92;100.00
61018;BME280;48171;51.550;5.434;2023-05-24T04:50:59;102445.41;;;6.95;100.00
61018;BME280;48171;51.550;5.434;2023-05-24T04:53:24;102437.66;;;6.99;100.00
61018;BME280;48171;51.550;5.434;2023-05-24T04:55:50;102432.47;;;7.01;100.00
61018;BME280;48171;51.550;5.434;2023-05-24T04:58:16;102442.31;;;7.08;100.00
61018;BME280;48171;51.550;5.434;2023-05-24T05:00:41;102444.22;;;7.12;100.00
61018;BME280;48171;51.550;5.434;2023-05-24T05:03:07;102443.41;;;7.15;100.00
61018;BME280;48171;51.550;5.434;2023-05-24T05:05:33;102438.25;;;7.18;100.00
61018;BME280;48171;51.550;5.434;2023-05-24T05:07:59;102436.69;;;7.23;100.00
61018;BME280;48171;51.550;5.434;2023-05-24T05:10:24;102426.19;;;7.23;100.00
61018;BME280;48171;51.550;5.434;2023-05-24T05:12:50;102438.59;;;7.29;100.00
61018;BME280;48171;51.550;5.434;2023-05-24T05:15:16;102441.41;;;7.33;100.00
61018;BME280;48171;51.550;5.434;2023-05-24T05:17:41;102439.75;;;7.37;100.00
61018;BME280;48171;51.550;5.434;2023-05-24T05:20:07;102445.16;;;7.41;100.00
61018;BME280;48171;51.550;5.434;2023-05-24T05:22:32;102445.31;;;7.46;100.00
61018;BME280;48171;51.550;5.434;2023-05-24T05:24:58;102442.81;;;7.51;100.00
61018;BME280;48171;51.550;5.434;2023-05-24T05:27:24;102453.50;;;7.55;100.00
61018;BME280;48171;51.550;5.434;2023-05-24T05:29:49;102453.63;;;7.60;100.00
61018;BME280;48171;51.550;5.434;2023-05-24T05:32:14;102442.31;;;7.63;100.00
61018;BME280;48171;51.550;5.434;2023-05-24T05:34:40;102448.63;;;7.68;100.00
61018;BME280;48171;51.550;5.434;2023-05-24T05:37:06;102449.56;;;7.71;100.00
61018;BME280;48171;51.550;5.434;2023-05-24T05:39:31;102447.13;;;7.76;100.00
61018;BME280;48171;51.550;5.434;2023-05-24T05:41:56;102447.25;;;7.80;100.00
61018;BME280;48171;51.550;5.434;2023-05-24T05:44:22;102438.53;;;7.83;100.00
61018;BME280;48171;51.550;5.434;2023-05-24T05:46:47;102446.59;;;7.88;100.00
61018;BME280;48171;51.550;5.434;2023-05-24T05:49:13;102454.63;;;7.92;100.00
61018;BME280;48171;51.550;5.434;2023-05-24T05:51:40;102445.09;;;7.96;100.00
61018;BME280;48171;51.550;5.434;2023-05-24T05:54:06;102445.22;;;8.00;100.00
61018;BME280;48171;51.550;5.434;2023-05-24T05:56:38;102455.03;;;8.06;100.00
61018;BME280;48171;51.550;5.434;2023-05-24T05:59:09;102464.88;;;8.13;100.00
61018;BME280;48171;51.550;5.434;2023-05-24T06:01:35;102454.53;;;8.19;100.00
61018;BME280;48171;51.550;5.434;2023-05-24T06:04:00;102459.94;;;8.24;100.00
61018;BME280;48171;51.550;5.434;2023-05-24T06:06:25;102461.84;;;8.30;100.00
61018;BME280;48171;51.550;5.434;2023-05-24T06:08:51;102467.28;;;8.36;100.00
61018;BME280;48171;51.550;5.434;2023-05-24T06:11:16;102470.16;;;8.44;100.00
61018;BME280;48171;51.550;5.434;2023-05-24T06:13:41;102457.03;;;8.45;100.00
61018;BME280;48171;51.550;5.434;2023-05-24T06:16:06;102473.19;;;8.57;100.00
61018;BME280;48171;51.550;5.434;2023-05-24T06:18:33;102467.19;;;8.63;100.00
61018;BME280;48171;51.550;5.434;2023-05-24T06:20:58;102471.03;;;8.76;100.00
61018;BME280;48171;51.550;5.434;2023-05-24T06:23:23;102475.66;;;8.85;100.00
61018;BME280;48171;51.550;5.434;2023-05-24T06:25:49;102474.97;;;8.92;100.00
61018;BME280;48171;51.550;5.434;2023-05-24T06:28:14;102483.97;;;9.00;100.00
61018;BME280;48171;51.550;5.434;2023-05-24T06:30:40;102479.88;;;9.11;100.00
61018;BME280;48171;51.550;5.434;2023-05-24T06:33:05;102484.59;;;9.23;100.00
61018;BME280;48171;51.550;5.434;2023-05-24T06:35:30;102491.88;;;9.35;100.00
61018;BME280;48171;51.550;5.434;2023-05-24T06:37:55;102478.13;;;9.48;100.00
61018;BME280;48171;51.550;5.434;2023-05-24T06:40:22;102477.53;;;9.60;100.00
61018;BME280;48171;51.550;5.434;2023-05-24T06:42:47;102476.94;;;9.73;100.00
61018;BME280;48171;51.550;5.434;2023-05-24T06:45:12;102464.91;;;9.85;100.00
61018;BME280;48171;51.550;5.434;2023-05-24T06:47:37;102466.75;;;9.89;100.00
61018;BME280;48171;51.550;5.434;2023-05-24T06:50:03;102479.25;;;9.97;100.00
61018;BME280;48171;51.550;5.434;2023-05-24T06:52:28;102472.25;;;9.98;100.00
61018;BME280;48171;51.550;5.434;2023-05-24T06:54:54;102477.44;;;9.95;100.00
61018;BME280;48171;51.550;5.434;2023-05-24T06:57:20;102487.06;;;9.93;100.00
61018;BME280;48171;51.550;5.434;2023-05-24T06:59:45;102484.47;;;9.94;100.00
61018;BME280;48171;51.550;5.434;2023-05-24T07:02:11;102474.00;;;9.99;100.00
61018;BME280;48171;51.550;5.434;2023-05-24T07:04:36;102482.91;;;10.02;100.00
61018;BME280;48171;51.550;5.434;2023-05-24T07:07:05;102475.16;;;10.10;100.00
61018;BME280;48171;51.550;5.434;2023-05-24T07:09:30;102475.28;;;10.16;100.00
61018;BME280;48171;51.550;5.434;2023-05-24T07:11:55;102474.47;;;10.20;100.00
61018;BME280;48171;51.550;5.434;2023-05-24T07:14:20;102469.31;;;10.27;100.00
61018;BME280;48171;51.550;5.434;2023-05-24T07:16:48;102474.69;;;10.30;100.00
61018;BME280;48171;51.550;5.434;2023-05-24T07:19:13;102475.69;;;10.35;97.64
61018;BME280;48171;51.550;5.434;2023-05-24T07:21:39;102479.44;;;10.48;100.00
61018;BME280;48171;51.550;5.434;2023-05-24T07:24:04;102480.41;;;10.51;100.00
61018;BME280;48171;51.550;5.434;2023-05-24T07:26:29;102478.75;;;10.56;100.00
61018;BME280;48171;51.550;5.434;2023-05-24T07:28:55;102477.97;;;10.62;97.79
61018;BME280;48171;51.550;5.434;2023-05-24T07:31:21;102481.63;;;10.70;100.00
61018;BME280;48171;51.550;5.434;2023-05-24T07:33:46;102482.63;;;10.75;100.00
61018;BME280;48171;51.550;5.434;2023-05-24T07:36:12;102485.34;;;10.80;99.45
61018;BME280;48171;51.550;5.434;2023-05-24T07:38:37;102483.63;;;10.82;96.76
61018;BME280;48171;51.550;5.434;2023-05-24T07:41:05;102492.53;;;10.87;96.77
61018;BME280;48171;51.550;5.434;2023-05-24T07:43:31;102489.97;;;10.92;98.91
61018;BME280;48171;51.550;5.434;2023-05-24T07:45:57;102492.69;;;10.96;95.96
61018;BME280;48171;51.550;5.434;2023-05-24T07:48:23;102491.94;;;11.04;96.46
61018;BME280;48171;51.550;5.434;2023-05-24T07:50:49;102485.78;;;11.05;96.20
61018;BME280;48171;51.550;5.434;2023-05-24T07:53:15;102489.34;;;11.05;92.85
61018;BME280;48171;51.550;5.434;2023-05-24T07:55:40;102483.19;;;11.06;88.52
61018;BME280;48171;51.550;5.434;2023-05-24T07:58:06;102484.97;;;11.09;94.88
61018;BME280;48171;51.550;5.434;2023-05-24T08:00:31;102484.16;;;11.11;89.70
61018;BME280;48171;51.550;5.434;2023-05-24T08:02:58;102489.44;;;11.11;89.64
61018;BME280;48171;51.550;5.434;2023-05-24T08:05:24;102485.00;;;11.10;87.64
61018;BME280;48171;51.550;5.434;2023-05-24T08:07:49;102489.47;;;11.14;86.95
61018;BME280;48171;51.550;5.434;2023-05-24T08:10:14;102485.97;;;11.14;87.91
61018;BME280;48171;51.550;5.434;2023-05-24T08:12:41;102483.38;;;11.18;88.31
61018;BME280;48171;51.550;5.434;2023-05-24T08:15:06;102482.59;;;11.24;87.75
61018;BME280;48171;51.550;5.434;2023-05-24T08:17:32;102478.25;;;11.28;87.32
61018;BME280;48171;51.550;5.434;2023-05-24T08:19:58;102476.59;;;11.34;84.16
61018;BME280;48171;51.550;5.434;2023-05-24T08:22:23;102482.03;;;11.45;90.82
61018;BME280;48171;51.550;5.434;2023-05-24T08:24:48;102478.69;;;11.55;87.70
61018;BME280;48171;51.550;5.434;2023-05-24T08:27:13;102481.44;;;11.63;83.37
61018;BME280;48171;51.550;5.434;2023-05-24T08:29:39;102482.41;;;11.68;85.89
61018;BME280;48171;51.550;5.434;2023-05-24T08:32:04;102483.25;;;11.67;85.45
61018;BME280;48171;51.550;5.434;2023-05-24T08:34:36;102480.63;;;11.67;84.59
61018;BME280;48171;51.550;5.434;2023-05-24T08:37:02;102481.53;;;11.68;83.75
61018;BME280;48171;51.550;5.434;2023-05-24T08:39:27;102475.41;;;11.73;81.61
61018;BME280;48171;51.550;5.434;2023-05-24T08:41:54;102475.59;;;11.87;87.07
61018;BME280;48171;51.550;5.434;2023-05-24T08:44:20;102470.44;;;11.93;87.13
61018;BME280;48171;51.550;5.434;2023-05-24T08:46:46;102461.59;;;11.93;85.07
61018;BME280;48171;51.550;5.434;2023-05-24T08:49:13;102467.84;;;11.99;83.68
61018;BME280;48171;51.550;5.434;2023-05-24T08:51:39;102465.25;;;12.01;83.16
61018;BME280;48171;51.550;5.434;2023-05-24T08:54:04;102462.63;;;12.03;81.64
61018;BME280;48171;51.550;5.434;2023-05-24T08:56:31;102465.34;;;12.09;85.68
61018;BME280;48171;51.550;5.434;2023-05-24T08:58:56;102460.09;;;12.13;83.87
61018;BME280;48171;51.550;5.434;2023-05-24T09:01:23;102461.91;;;12.16;79.80
61018;BME280;48171;51.550;5.434;2023-05-24T09:03:50;102465.53;;;12.23;83.71
61018;BME280;48171;51.550;5.434;2023-05-24T09:06:17;102452.31;;;12.24;79.95
61018;BME280;48171;51.550;5.434;2023-05-24T09:08:43;102453.22;;;12.26;79.68
61018;BME280;48171;51.550;5.434;2023-05-24T09:11:13;102455.91;;;12.31;81.28
61018;BME280;48171;51.550;5.434;2023-05-24T09:13:39;102453.28;;;12.35;77.14
61018;BME280;48171;51.550;5.434;2023-05-24T09:16:05;102460.44;;;12.41;78.71
61018;BME280;48171;51.550;5.434;2023-05-24T09:18:30;102448.09;;;12.46;79.75
61018;BME280;48171;51.550;5.434;2023-05-24T09:20:55;102452.59;;;12.52;79.38
61018;BME280;48171;51.550;5.434;2023-05-24T09:23:21;102452.66;;;12.58;77.28
61018;BME280;48171;51.550;5.434;2023-05-24T09:25:47;102453.59;;;12.61;76.23
61018;BME280;48171;51.550;5.434;2023-05-24T09:28:13;102459.81;;;12.65;76.93
61018;BME280;48171;51.550;5.434;2023-05-24T09:30:44;102454.53;;;12.68;80.17
61018;BME280;48171;51.550;5.434;2023-05-24T09:33:10;102454.56;;;12.70;79.49
61018;BME280;48171;51.550;5.434;2023-05-24T09:35:41;102459.06;;;12.77;72.80
61018;BME280;48171;51.550;5.434;2023-05-24T09:38:15;102455.56;;;12.84;73.65
61018;BME280;48171;51.550;5.434;2023-05-24T09:40:42;102454.75;;;12.90;70.69
61018;BME280;48171;51.550;5.434;2023-05-24T09:43:09;102455.66;;;12.93;69.39
61018;BME280;48171;51.550;5.434;2023-05-24T09:45:42;102447.75;;;12.98;75.34
61018;BME280;48171;51.550;5.434;2023-05-24T09:48:12;102447.00;;;13.11;76.60
61018;BME280;48171;51.550;5.434;2023-05-24T09:50:37;102447.09;;;13.25;78.13
61018;BME280;48171;51.550;5.434;2023-05-24T09:53:02;102444.56;;;13.37;73.17
61018;BME280;48171;51.550;5.434;2023-05-24T09:55:28;102443.69;;;13.43;66.66
61018;BME280;48171;51.550;5.434;2023-05-24T09:58:07;102435.78;;;13.48;70.17
61018;BME280;48171;51.550;5.434;2023-05-24T10:00:42;102445.53;;;13.50;74.92
61018;BME280;48171;51.550;5.434;2023-05-24T10:03:09;102440.19;;;13.49;74.33
61018;BME280;48171;51.550;5.434;2023-05-24T10:05:41;102446.41;;;13.51;72.94
61018;BME280;48171;51.550;5.434;2023-05-24T10:08:08;102444.59;;;13.45;69.76
61018;BME280;48171;51.550;5.434;2023-05-24T10:10:34;102441.03;;;13.38;68.08
61018;BME280;48171;51.550;5.434;2023-05-24T10:13:00;102436.59;;;13.39;69.64
61018;BME280;48171;51.550;5.434;2023-05-24T10:15:26;102434.03;;;13.51;75.65
61018;BME280;48171;51.550;5.434;2023-05-24T10:17:56;102433.22;;;13.62;70.33
61018;BME280;48171;51.550;5.434;2023-05-24T10:20:22;102433.28;;;13.77;72.08
61018;BME280;48171;51.550;5.434;2023-05-24T10:22:51;102431.59;;;13.88;68.89
61018;BME280;48171;51.550;5.434;2023-05-24T10:25:23;102426.28;;;13.97;71.58
61018;BME280;48171;51.550;5.434;2023-05-24T10:27:53;102427.19;;;13.95;67.67
61018;BME280;48171;51.550;5.434;2023-05-24T10:33:13;102429.78;;;13.79;69.26
61018;BME280;48171;51.550;5.434;2023-05-24T10:35:39;102427.97;;;13.75;70.94
61018;BME280;48171;51.550;5.434;2023-05-24T10:38:05;102439.50;;;13.76;66.62
61018;BME280;48171;51.550;5.434;2023-05-24T10:40:32;102433.28;;;13.75;69.75
61018;BME280;48171;51.550;5.434;2023-05-24T10:42:57;102427.97;;;13.74;68.38
61018;BME280;48171;51.550;5.434;2023-05-24T10:47:48;102423.53;;;13.74;66.83
61018;BME280;48171;51.550;5.434;2023-05-24T10:50:18;102425.34;;;13.78;66.40
61018;BME280;48171;51.550;5.434;2023-05-24T10:52:44;102423.59;;;13.82;67.66
61018;BME280;48171;51.550;5.434;2023-05-24T10:55:10;102425.38;;;13.86;67.34
61018;BME280;48171;51.550;5.434;2023-05-24T10:57:36;102422.72;;;13.89;68.62
61018;BME280;48171;51.550;5.434;2023-05-24T11:02:50;102424.53;;;13.95;68.66
61018;BME280;48171;51.550;5.434;2023-05-24T11:05:16;102423.66;;;13.96;65.49
61018;BME280;48171;51.550;5.434;2023-05-24T11:07:43;102414.81;;;13.98;66.40
61018;BME280;48171;51.550;5.434;2023-05-24T11:10:17;102424.56;;;14.03;69.09
61018;BME280;48171;51.550;5.434;2023-05-24T11:12:59;102417.47;;;14.00;65.65
61018;BME280;48171;51.550;5.434;2023-05-24T11:15:25;102415.69;;;14.00;66.18
61018;BME280;48171;51.550;5.434;2023-05-24T11:20:33;102425.47;;;14.06;67.73
61018;BME280;48171;51.550;5.434;2023-05-24T11:22:59;102428.09;;;14.08;68.44
61018;BME280;48171;51.550;5.434;2023-05-24T11:25:26;102429.03;;;14.08;67.89
61018;BME280;48171;51.550;5.434;2023-05-24T11:27:52;102430.78;;;14.09;69.02
61018;BME280;48171;51.550;5.434;2023-05-24T11:30:18;102427.22;;;14.06;67.15
61018;BME280;48171;51.550;5.434;2023-05-24T11:32:46;102421.00;;;14.05;65.46
61018;BME280;48171;51.550;5.434;2023-05-24T11:35:12;102420.13;;;14.08;69.10
61018;BME280;48171;51.550;5.434;2023-05-24T11:37:38;102420.16;;;14.11;66.23
61018;BME280;48171;51.550;5.434;2023-05-24T11:40:05;102417.50;;;14.15;67.78
61018;BME280;48171;51.550;5.434;2023-05-24T11:42:34;102422.84;;;14.18;66.04
61018;BME280;48171;51.550;5.434;2023-05-24T11:45:02;102422.00;;;14.24;70.91
61018;BME280;48171;51.550;5.434;2023-05-24T11:47:27;102412.25;;;14.31;69.40
61018;BME280;48171;51.550;5.434;2023-05-24T11:49:53;102426.44;;;14.34;70.59
61018;BME280;48171;51.550;5.434;2023-05-24T11:52:18;102419.34;;;14.38;65.82
61018;BME280;48171;51.550;5.434;2023-05-24T11:54:44;102416.69;;;14.35;63.95
61018;BME280;48171;51.550;5.434;2023-05-24T11:57:13;102414.91;;;14.34;66.40
61018;BME280;48171;51.550;5.434;2023-05-24T11:59:40;102413.16;;;14.33;65.87
61018;BME280;48171;51.550;5.434;2023-05-24T12:02:05;102415.78;;;14.30;68.04
61018;BME280;48171;51.550;5.434;2023-05-24T12:04:32;102408.69;;;14.29;68.30
61018;BME280;48171;51.550;5.434;2023-05-24T12:06:59;102412.22;;;14.28;66.01
61018;BME280;48171;51.550;5.434;2023-05-24T12:09:25;102413.13;;;14.31;64.86
61018;BME280;48171;51.550;5.434;2023-05-24T12:11:52;102411.34;;;14.32;68.68
61018;BME280;48171;51.550;5.434;2023-05-24T12:14:26;102406.94;;;14.32;69.35
61018;BME280;48171;51.550;5.434;2023-05-24T12:16:54;102411.38;;;14.33;64.86
61018;BME280;48171;51.550;5.434;2023-05-24T12:19:22;102411.41;;;14.43;69.73
61018;BME280;48171;51.550;5.434;2023-05-24T12:21:54;102408.72;;;14.36;67.80
61018;BME280;48171;51.550;5.434;2023-05-24T12:24:22;102415.81;;;14.40;66.26
61018;BME280;48171;51.550;5.434;2023-05-24T12:26:47;102411.41;;;14.43;66.09
61018;BME280;48171;51.550;5.434;2023-05-24T12:29:14;102409.63;;;14.45;64.82
61018;BME280;48171;51.550;5.434;2023-05-24T12:31:41;102414.94;;;14.48;70.41
61018;BME280;48171;51.550;5.434;2023-05-24T12:34:17;102414.97;;;14.51;68.78
61018;BME280;48171;51.550;5.434;2023-05-24T12:36:44;102409.63;;;14.51;64.35
61018;BME280;48171;51.550;5.434;2023-05-24T12:39:20;102410.50;;;14.50;66.68
61018;BME280;48171;51.550;5.434;2023-05-24T12:41:53;102400.78;;;14.49;69.31
61018;BME280;48171;51.550;5.434;2023-05-24T12:44:27;102407.88;;;14.48;66.43
61018;BME280;48171;51.550;5.434;2023-05-24T12:46:53;102402.53;;;14.51;66.21
61018;BME280;48171;51.550;5.434;2023-05-24T12:49:19;102400.75;;;14.52;64.82
61018;BME280;48171;51.550;5.434;2023-05-24T12:51:44;102399.91;;;14.54;66.39
61018;BME280;48171;51.550;5.434;2023-05-24T12:54:10;102397.25;;;14.57;68.56
61018;BME280;48171;51.550;5.434;2023-05-24T12:56:35;102402.59;;;14.64;70.22
61018;BME280;48171;51.550;5.434;2023-05-24T12:59:00;102407.00;;;14.66;66.96
61018;BME280;48171;51.550;5.434;2023-05-24T13:01:26;102399.94;;;14.68;64.31
61018;BME280;48171;51.550;5.434;2023-05-24T13:03:51;102399.94;;;14.70;69.03
61018;BME280;48171;51.550;5.434;2023-05-24T13:06:17;102393.72;;;14.74;67.18
61018;BME280;48171;51.550;5.434;2023-05-24T13:08:42;102384.00;;;14.73;68.70